createdAt,value
2019-04-11T00:01:14.227Z,6.73
2019-04-11T00:03:44.198Z,8.27
2019-04-11T00:06:15.088Z,7.70
2019-04-11T00:08:45.963Z,7.13
2019-04-11T00:11:15.989Z,7.23
2019-04-11T00:13:45.843Z,7.13
2019-04-11T00:16:15.787Z,8.10
2019-04-11T00:18:47.048Z,8.70
2019-04-11T00:21:17.116Z,8.30
2019-04-11T00:23:48.229Z,8.33
2019-04-11T00:26:18.301Z,8.23
2019-04-11T00:28:48.157Z,8.00
2019-04-11T00:31:20.898Z,8.60
2019-04-11T00:34:10.857Z,9.17
2019-04-11T00:36:41.188Z,8.30
2019-04-11T00:39:13.243Z,7.27
2019-04-11T00:42:02.184Z,6.30
2019-04-11T00:44:32.766Z,7.93
2019-04-11T00:47:02.781Z,7.30
2019-04-11T00:49:35.132Z,7.50
2019-04-11T00:52:05.012Z,7.57
2019-04-11T00:54:35.261Z,7.47
2019-04-11T00:57:06.466Z,7.47
2019-04-11T00:59:36.494Z,8.37
2019-04-11T01:02:07.299Z,8.30
2019-04-11T01:04:37.455Z,8.60
2019-04-11T01:07:07.343Z,8.70
2019-04-11T01:09:37.212Z,8.93
2019-04-11T01:12:08.067Z,10.03
2019-04-11T01:14:38.635Z,9.53
2019-04-11T01:17:09.442Z,9.70
2019-04-11T01:19:40.597Z,10.07
2019-04-11T01:22:10.782Z,10.00
2019-04-11T01:24:41.947Z,10.00
2019-04-11T01:27:13.904Z,10.20
2019-04-11T01:29:44.030Z,9.20
2019-04-11T01:32:14.039Z,10.57
2019-04-11T01:34:46.643Z,10.27
2019-04-11T01:37:17.637Z,9.57
2019-04-11T01:39:52.130Z,9.33
2019-04-11T01:42:22.823Z,10.33
2019-04-11T01:44:52.812Z,10.50
2019-04-11T01:47:57.430Z,10.80
2019-04-11T01:50:30.801Z,10.60
2019-04-11T01:53:00.757Z,10.60
2019-04-11T01:55:30.630Z,10.50
2019-04-11T01:58:00.604Z,10.67
2019-04-11T02:00:50.994Z,10.30
2019-04-11T02:03:27.274Z,10.10
2019-04-11T02:05:57.301Z,9.60
2019-04-11T02:08:27.261Z,9.20
2019-04-11T02:10:57.231Z,9.13
2019-04-11T02:13:27.970Z,9.93
2019-04-11T02:15:58.851Z,10.37
2019-04-11T02:18:29.749Z,9.90
2019-04-11T02:20:59.620Z,10.03
2019-04-11T02:23:49.376Z,9.57
2019-04-11T02:26:25.076Z,10.33
2019-04-11T02:28:55.271Z,9.80
2019-04-11T02:31:26.349Z,10.10
2019-04-11T02:33:57.329Z,8.70
2019-04-11T02:36:29.562Z,9.00
2019-04-11T02:39:04.028Z,9.47
2019-04-11T02:41:32.002Z,8.37
2019-04-11T02:44:03.601Z,8.67
2019-04-11T02:46:42.634Z,9.03
2019-04-11T02:49:07.973Z,9.30
2019-04-11T02:51:38.819Z,8.63
2019-04-11T02:54:11.394Z,8.47
2019-04-11T02:56:43.589Z,8.90
2019-04-11T02:59:13.543Z,8.27
2019-04-11T03:01:44.114Z,8.57
2019-04-11T03:04:14.824Z,8.17
2019-04-11T03:06:47.770Z,9.60
2019-04-11T03:09:18.126Z,9.57
2019-04-11T03:11:49.802Z,8.67
2019-04-11T03:14:20.798Z,9.67
2019-04-11T03:17:04.206Z,9.87
2019-04-11T03:19:40.874Z,10.13
2019-04-11T03:21:57.233Z,10.40
2019-04-11T03:24:29.487Z,10.77
2019-04-11T03:27:04.082Z,11.70
2019-04-11T03:29:33.819Z,11.00
2019-04-11T03:32:37.248Z,11.30
2019-04-11T03:35:22.525Z,11.23
2019-04-11T03:37:39.246Z,12.70
2019-04-11T03:39:59.279Z,12.53
2019-04-11T03:42:28.587Z,12.17
2019-04-11T03:44:48.012Z,12.03
2019-04-11T03:47:31.801Z,13.13
2019-04-11T03:49:53.148Z,13.20
2019-04-11T03:52:20.937Z,12.43
2019-04-11T03:54:51.343Z,14.13
2019-04-11T03:57:21.586Z,14.17
2019-04-11T03:59:52.148Z,14.23
2019-04-11T04:02:22.577Z,15.77
2019-04-11T04:04:54.281Z,14.67
2019-04-11T04:07:24.367Z,16.47
2019-04-11T04:09:54.571Z,16.37
2019-04-11T04:12:24.794Z,15.00
2019-04-11T04:15:35.876Z,14.93
2019-04-11T04:18:16.652Z,16.60
2019-04-11T04:21:09.147Z,17.33
2019-04-11T04:23:43.273Z,18.17
2019-04-11T04:26:14.763Z,18.17
2019-04-11T04:28:45.234Z,18.00
2019-04-11T04:31:16.291Z,19.07
2019-04-11T04:33:47.643Z,20.77
2019-04-11T04:36:18.508Z,21.53
2019-04-11T04:38:49.394Z,21.43
2019-04-11T04:41:30.800Z,21.00
2019-04-11T04:43:52.772Z,20.83
2019-04-11T04:46:39.636Z,21.93
2019-04-11T04:48:56.427Z,22.60
2019-04-11T04:51:26.804Z,22.97
2019-04-11T04:53:57.972Z,23.70
2019-04-11T04:56:31.539Z,25.27
2019-04-11T04:58:59.951Z,26.77
2019-04-11T05:01:31.550Z,25.50
2019-04-11T05:04:02.241Z,25.27
2019-04-11T05:06:32.429Z,25.13
2019-04-11T05:09:02.283Z,25.00
2019-04-11T05:11:33.843Z,25.20
2019-04-11T05:14:05.055Z,22.43
2019-04-11T05:16:35.787Z,22.60
2019-04-11T05:19:06.587Z,21.13
2019-04-11T05:21:37.186Z,20.73
2019-04-11T05:24:07.287Z,22.53
2019-04-11T05:26:37.547Z,23.23
2019-04-11T05:29:07.528Z,22.93
2019-04-11T05:31:38.625Z,22.37
2019-04-11T05:34:09.870Z,22.43
2019-04-11T05:36:40.878Z,22.13
2019-04-11T05:39:11.198Z,22.03
2019-04-11T05:41:44.018Z,22.83
2019-04-11T05:44:14.607Z,23.73
2019-04-11T05:46:54.916Z,22.37
2019-04-11T05:49:24.449Z,23.97
2019-04-11T05:52:01.921Z,23.03
2019-04-11T05:54:41.185Z,24.53
2019-04-11T05:57:11.279Z,23.77
2019-04-11T05:59:43.328Z,24.40
2019-04-11T06:02:24.826Z,23.70
2019-04-11T06:05:02.731Z,23.07
2019-04-11T06:07:44.699Z,24.57
2019-04-11T06:10:18.562Z,23.43
2019-04-11T06:13:16.815Z,25.07
2019-04-11T06:15:49.622Z,24.60
2019-04-11T06:18:43.159Z,24.90
2019-04-11T06:21:29.388Z,23.60
2019-04-11T06:24:30.716Z,21.77
2019-04-11T06:27:15.782Z,25.20
2019-04-11T06:29:57.514Z,24.13
2019-04-11T06:32:45.843Z,24.90
2019-04-11T06:36:13.784Z,24.87
2019-04-11T06:38:49.159Z,24.10
2019-04-11T06:41:32.780Z,24.53
2019-04-11T06:44:15.101Z,24.43
2019-04-11T06:47:03.788Z,25.23
2019-04-11T06:49:44.664Z,23.83
2019-04-11T06:52:14.935Z,25.93
2019-04-11T06:55:28.843Z,27.67
2019-04-11T06:58:07.199Z,25.77
2019-04-11T07:00:39.110Z,31.03
2019-04-11T07:03:19.850Z,30.67
2019-04-11T07:05:41.261Z,32.43
2019-04-11T07:08:11.703Z,33.63
2019-04-11T07:10:47.380Z,31.73
2019-04-11T07:13:22.716Z,29.43
2019-04-11T07:15:56.817Z,27.03
2019-04-11T07:18:59.026Z,26.37
2019-04-11T07:21:35.319Z,26.87
2019-04-11T07:24:24.559Z,27.63
2019-04-11T07:27:07.464Z,30.87
2019-04-11T07:30:03.131Z,29.77
2019-04-11T07:32:34.273Z,33.00
2019-04-11T07:35:27.668Z,28.23
2019-04-11T07:37:58.566Z,28.03
2019-04-11T07:40:47.543Z,28.77
2019-04-11T07:43:31.168Z,27.87
2019-04-11T07:46:25.263Z,24.10
2019-04-11T07:49:06.128Z,22.90
2019-04-11T07:51:43.017Z,23.23
2019-04-11T07:54:18.205Z,23.60
2019-04-11T07:57:08.391Z,23.50
2019-04-11T08:00:03.884Z,24.73
2019-04-11T08:02:53.143Z,23.57
2019-04-11T08:05:58.501Z,27.73
2019-04-11T08:08:49.366Z,27.63
2019-04-11T08:11:30.347Z,31.30
2019-04-11T08:14:24.715Z,30.57
2019-04-11T08:17:07.121Z,31.60
2019-04-11T08:19:59.594Z,30.33
2019-04-11T08:22:33.483Z,31.97
2019-04-11T08:25:25.200Z,32.50
2019-04-11T08:28:02.182Z,32.73
2019-04-11T08:30:34.995Z,31.27
2019-04-11T08:33:07.444Z,30.60
2019-04-11T08:35:58.287Z,31.87
2019-04-11T08:38:34.253Z,30.73
2019-04-11T08:41:34.050Z,31.70
2019-04-11T08:44:09.835Z,28.13
2019-04-11T08:47:04.305Z,29.17
2019-04-11T08:49:41.892Z,29.97
2019-04-11T08:52:38.232Z,28.07
2019-04-11T08:55:14.612Z,27.63
2019-04-11T08:57:47.734Z,29.00
2019-04-11T09:00:46.825Z,27.10
2019-04-11T09:03:21.782Z,27.47
2019-04-11T09:06:06.189Z,26.73
2019-04-11T09:08:59.693Z,27.43
2019-04-11T09:11:49.401Z,26.93
2019-04-11T09:14:44.571Z,27.00
2019-04-11T09:17:26.720Z,25.97
2019-04-11T09:20:35.846Z,25.50
2019-04-11T09:23:25.966Z,25.50
2019-04-11T09:26:14.008Z,25.43
2019-04-11T09:28:49.584Z,26.30
2019-04-11T09:31:41.906Z,26.97
2019-04-11T09:34:44.228Z,27.07
2019-04-11T09:37:30.055Z,26.73
2019-04-11T09:40:26.101Z,27.67
2019-04-11T09:43:22.180Z,26.23
2019-04-11T09:46:14.627Z,26.87
2019-04-11T09:49:10.817Z,27.20
2019-04-11T09:51:49.873Z,25.93
2019-04-11T09:54:28.575Z,27.00
2019-04-11T09:57:20.619Z,26.70
2019-04-11T10:00:10.175Z,28.27
2019-04-11T10:02:50.547Z,27.00
2019-04-11T10:05:24.956Z,29.73
2019-04-11T10:08:17.001Z,30.50
2019-04-11T10:11:26.040Z,28.20
2019-04-11T10:14:15.556Z,27.43
2019-04-11T10:17:04.438Z,26.03
2019-04-11T10:19:52.235Z,26.57
2019-04-11T10:22:43.993Z,27.73
2019-04-11T10:25:19.099Z,27.47
2019-04-11T10:28:24.969Z,26.57
2019-04-11T10:31:12.668Z,27.23
2019-04-11T10:34:01.605Z,27.03
2019-04-11T10:36:39.036Z,27.43
2019-04-11T10:39:33.316Z,28.27
2019-04-11T10:42:08.495Z,29.43
2019-04-11T10:45:10.519Z,28.70
2019-04-11T10:47:41.468Z,30.17
2019-04-11T10:50:35.968Z,28.17
2019-04-11T10:53:07.230Z,29.57
2019-04-11T10:55:56.236Z,30.07
2019-04-11T10:58:35.513Z,29.73
2019-04-11T11:01:28.307Z,29.50
2019-04-11T11:04:17.989Z,30.53
2019-04-11T11:06:50.394Z,30.23
2019-04-11T11:09:44.345Z,32.17
2019-04-11T11:12:35.156Z,31.63
2019-04-11T11:15:19.855Z,31.87
2019-04-11T11:18:39.842Z,31.80
2019-04-11T11:20:57.090Z,32.10
2019-04-11T11:23:49.214Z,30.83
2019-04-11T11:26:24.241Z,30.50
2019-04-11T11:29:15.276Z,29.67
2019-04-11T11:32:05.156Z,30.03
2019-04-11T11:34:42.276Z,29.83
2019-04-11T11:37:37.517Z,30.20
2019-04-11T11:40:38.464Z,30.20
2019-04-11T11:43:27.814Z,30.13
2019-04-11T11:46:36.239Z,28.63
2019-04-11T11:49:12.192Z,29.40
2019-04-11T11:52:11.265Z,31.83
2019-04-11T11:54:46.065Z,29.83
2019-04-11T11:57:26.652Z,31.60
2019-04-11T12:00:23.309Z,30.07
2019-04-11T12:03:09.010Z,31.77
2019-04-11T12:05:46.991Z,28.77
2019-04-11T12:08:39.103Z,31.70
2019-04-11T12:11:12.015Z,31.83
2019-04-11T12:14:01.915Z,30.83
2019-04-11T12:17:01.965Z,31.07
2019-04-11T12:19:48.809Z,30.87
2019-04-11T12:22:10.412Z,31.83
2019-04-11T12:25:02.929Z,31.37
2019-04-11T12:27:50.096Z,30.23
2019-04-11T12:30:39.839Z,30.73
2019-04-11T12:33:29.709Z,31.80
2019-04-11T12:36:08.091Z,31.43
2019-04-11T12:38:55.588Z,31.20
2019-04-11T12:41:43.547Z,30.87
2019-04-11T12:44:33.049Z,30.70
2019-04-11T12:47:15.474Z,30.10
2019-04-11T12:50:04.399Z,29.93
2019-04-11T12:52:40.041Z,30.27
2019-04-11T12:55:13.972Z,31.97
2019-04-11T12:58:01.295Z,32.23
2019-04-11T13:00:53.510Z,30.37
2019-04-11T13:03:41.121Z,31.67
2019-04-11T13:06:19.487Z,29.43
2019-04-11T13:09:26.843Z,31.30
2019-04-11T13:11:57.348Z,30.67
2019-04-11T13:14:40.732Z,31.27
2019-04-11T13:17:14.103Z,30.40
2019-04-11T13:20:04.217Z,29.50
2019-04-11T13:22:27.063Z,31.60
2019-04-11T13:25:18.899Z,31.30
2019-04-11T13:27:54.641Z,31.03
2019-04-11T13:30:43.651Z,30.63
2019-04-11T13:33:16.836Z,30.80
2019-04-11T13:36:06.062Z,30.40
2019-04-11T13:38:39.537Z,30.17
2019-04-11T13:41:20.088Z,31.60
2019-04-11T13:44:09.931Z,30.67
2019-04-11T13:46:59.157Z,29.03
2019-04-11T13:49:41.691Z,28.53
2019-04-11T13:52:30.956Z,29.23
2019-04-11T13:55:32.816Z,28.60
2019-04-11T13:58:52.868Z,28.70
2019-04-11T14:01:22.807Z,29.47
2019-04-11T14:04:11.566Z,30.43
2019-04-11T14:06:42.212Z,30.67
2019-04-11T14:09:36.857Z,29.47
2019-04-11T14:12:12.724Z,28.80
2019-04-11T14:14:54.300Z,30.17
2019-04-11T14:17:58.372Z,28.67
2019-04-11T14:20:53.072Z,30.77
2019-04-11T14:23:42.138Z,30.13
2019-04-11T14:26:40.489Z,30.37
2019-04-11T14:29:29.289Z,29.57
2019-04-11T14:32:03.106Z,29.23
2019-04-11T14:34:59.913Z,29.97
2019-04-11T14:37:45.460Z,29.40
2019-04-11T14:40:33.140Z,29.83
2019-04-11T14:43:20.502Z,29.70
2019-04-11T14:46:24.387Z,28.17
2019-04-11T14:48:56.881Z,29.07
2019-04-11T14:51:47.228Z,29.50
2019-04-11T14:54:20.034Z,29.97
2019-04-11T14:56:59.409Z,28.63
2019-04-11T14:59:45.424Z,31.73
2019-04-11T15:02:34.900Z,28.93
2019-04-11T15:05:13.851Z,30.50
2019-04-11T15:07:46.088Z,28.33
2019-04-11T15:10:49.490Z,29.67
2019-04-11T15:13:22.743Z,30.47
2019-04-11T15:16:26.797Z,29.73
2019-04-11T15:19:01.367Z,28.77
2019-04-11T15:21:48.908Z,29.67
2019-04-11T15:24:19.857Z,28.43
2019-04-11T15:27:17.936Z,27.40
2019-04-11T15:29:47.824Z,28.07
2019-04-11T15:32:29.288Z,29.60
2019-04-11T15:35:02.625Z,27.73
2019-04-11T15:37:51.757Z,27.73
2019-04-11T15:40:25.193Z,28.07
2019-04-11T15:43:14.004Z,29.43
2019-04-11T15:46:11.853Z,28.63
2019-04-11T15:49:00.570Z,28.27
2019-04-11T15:51:55.734Z,30.83
2019-04-11T15:54:44.455Z,29.17
2019-04-11T15:57:19.149Z,24.87
2019-04-11T16:00:07.956Z,24.97
2019-04-11T16:02:58.979Z,26.40
2019-04-11T16:05:51.580Z,27.43
2019-04-11T16:08:43.287Z,24.67
2019-04-11T16:11:28.409Z,24.50
2019-04-11T16:14:13.025Z,25.83
2019-04-11T16:17:13.376Z,25.63
2019-04-11T16:20:01.697Z,23.60
2019-04-11T16:23:08.829Z,24.07
2019-04-11T16:25:39.089Z,24.67
2019-04-11T16:28:31.643Z,21.97
2019-04-11T16:31:01.518Z,19.40
2019-04-11T16:33:55.565Z,22.07
2019-04-11T16:36:37.456Z,19.83
2019-04-11T16:39:49.954Z,18.97
2019-04-11T16:42:36.997Z,19.00
2019-04-11T16:45:39.809Z,19.63
2019-04-11T16:48:09.869Z,20.03
2019-04-11T16:50:39.738Z,19.60
2019-04-11T16:53:11.570Z,18.70
2019-04-11T16:55:43.134Z,19.57
2019-04-11T16:58:16.986Z,19.47
2019-04-11T17:00:45.460Z,18.13
2019-04-11T17:03:17.290Z,19.80
2019-04-11T17:05:57.485Z,16.87
2019-04-11T17:08:35.268Z,17.50
2019-04-11T17:11:10.965Z,17.97
2019-04-11T17:13:40.961Z,17.70
2019-04-11T17:16:16.125Z,16.57
2019-04-11T17:18:46.170Z,17.50
2019-04-11T17:21:16.047Z,17.37
2019-04-11T17:23:47.232Z,16.23
2019-04-11T17:26:17.763Z,15.87
2019-04-11T17:28:47.644Z,17.77
2019-04-11T17:31:17.524Z,16.70
2019-04-11T17:33:47.422Z,15.10
2019-04-11T17:36:17.312Z,15.20
2019-04-11T17:38:47.310Z,16.90
2019-04-11T17:41:17.296Z,15.97
2019-04-11T17:43:51.372Z,16.53
2019-04-11T17:46:18.831Z,17.60
2019-04-11T17:48:50.418Z,18.17
2019-04-11T17:51:21.132Z,16.80
2019-04-11T17:53:54.679Z,17.50
2019-04-11T17:56:24.792Z,18.43
2019-04-11T17:58:57.897Z,17.13
2019-04-11T18:01:25.741Z,19.43
2019-04-11T18:03:56.095Z,16.77
2019-04-11T18:06:26.126Z,19.27
2019-04-11T18:08:56.012Z,17.80
2019-04-11T18:11:26.640Z,18.67
2019-04-11T18:14:00.696Z,19.67
2019-04-11T18:16:28.858Z,19.63
2019-04-11T18:18:59.797Z,19.23
2019-04-11T18:21:29.678Z,19.10
2019-04-11T18:23:59.676Z,18.37
2019-04-11T18:26:30.559Z,19.33
2019-04-11T18:29:00.597Z,20.37
2019-04-11T18:31:30.579Z,20.27
2019-04-11T18:34:02.477Z,22.30
2019-04-11T18:36:32.558Z,21.00
2019-04-11T18:39:05.857Z,23.37
2019-04-11T18:41:34.150Z,22.13
2019-04-11T18:44:04.432Z,22.00
2019-04-11T18:46:34.548Z,21.83
2019-04-11T18:49:04.449Z,23.33
2019-04-11T18:51:34.522Z,22.83
2019-04-11T18:54:07.759Z,21.37
2019-04-11T18:56:38.259Z,23.17
2019-04-11T18:59:08.547Z,23.83
2019-04-11T19:01:40.015Z,22.83
2019-04-11T19:04:12.006Z,22.63
2019-04-11T19:06:43.070Z,22.90
2019-04-11T19:09:16.016Z,21.73
2019-04-11T19:11:46.435Z,23.33
2019-04-11T19:14:17.143Z,25.07
2019-04-11T19:16:47.125Z,22.47
2019-04-11T19:19:18.562Z,23.77
2019-04-11T19:21:50.778Z,23.00
2019-04-11T19:24:20.090Z,23.87
2019-04-11T19:26:50.139Z,22.33
2019-04-11T19:29:20.020Z,23.37
2019-04-11T19:31:49.877Z,21.43
2019-04-11T19:34:20.238Z,22.30
2019-04-11T19:36:50.173Z,23.30
2019-04-11T19:39:20.168Z,23.13
2019-04-11T19:41:50.046Z,22.57
2019-04-11T19:44:20.002Z,23.40
2019-04-11T19:46:51.090Z,22.60
2019-04-11T19:49:21.622Z,22.87
2019-04-11T19:51:51.959Z,21.00
2019-04-11T19:54:21.848Z,23.13
2019-04-11T19:57:05.628Z,23.03
2019-04-11T19:59:35.729Z,21.43
2019-04-11T20:02:06.092Z,21.87
2019-04-11T20:04:36.053Z,22.33
2019-04-11T20:07:06.100Z,21.30
2019-04-11T20:09:36.005Z,22.83
2019-04-11T20:12:05.969Z,21.80
2019-04-11T20:14:35.845Z,21.70
2019-04-11T20:17:05.823Z,22.60
2019-04-11T20:19:35.705Z,22.97
2019-04-11T20:22:08.222Z,20.40
2019-04-11T20:24:37.108Z,23.50
2019-04-11T20:27:08.121Z,22.47
2019-04-11T20:29:37.988Z,22.00
2019-04-11T20:32:07.844Z,20.93
2019-04-11T20:34:38.633Z,21.80
2019-04-11T20:37:12.546Z,20.17
2019-04-11T20:39:40.673Z,20.83
2019-04-11T20:42:10.525Z,21.00
2019-04-11T20:44:40.376Z,20.27
2019-04-11T20:47:10.439Z,20.57
2019-04-11T20:49:48.728Z,21.80
2019-04-11T20:52:18.560Z,20.77
2019-04-11T20:54:48.433Z,20.20
2019-04-11T20:57:25.562Z,20.07
2019-04-11T20:59:50.928Z,19.40
2019-04-11T21:02:20.843Z,19.33
2019-04-11T21:04:51.053Z,18.70
2019-04-11T21:07:21.019Z,17.83
2019-04-11T21:09:50.932Z,16.57
2019-04-11T21:12:20.812Z,16.47
2019-04-11T21:14:50.687Z,14.90
2019-04-11T21:17:20.576Z,14.47
2019-04-11T21:19:50.932Z,14.63
2019-04-11T21:22:24.132Z,14.03
2019-04-11T21:24:53.497Z,12.90
2019-04-11T21:27:23.409Z,12.53
2019-04-11T21:29:53.291Z,12.23
2019-04-11T21:32:23.161Z,12.50
2019-04-11T21:34:53.032Z,12.27
2019-04-11T21:37:23.372Z,11.23
2019-04-11T21:39:53.247Z,11.93
2019-04-11T21:42:23.106Z,12.23
2019-04-11T21:44:52.957Z,11.40
2019-04-11T21:47:22.933Z,11.67
2019-04-11T21:49:52.843Z,11.73
2019-04-11T21:52:22.714Z,10.83
2019-04-11T21:54:52.555Z,12.30
2019-04-11T21:57:22.490Z,12.30
2019-04-11T21:59:52.464Z,10.90
2019-04-11T22:02:24.282Z,12.17
2019-04-11T22:04:54.200Z,11.50
2019-04-11T22:07:24.092Z,12.03
2019-04-11T22:09:54.007Z,11.27
2019-04-11T22:12:23.884Z,11.10
2019-04-11T22:14:53.931Z,10.87
2019-04-11T22:17:23.836Z,11.60
2019-04-11T22:19:53.688Z,12.20
2019-04-11T22:22:23.605Z,11.23
2019-04-11T22:24:53.500Z,11.30
2019-04-11T22:27:23.392Z,12.03
2019-04-11T22:29:55.323Z,12.07
2019-04-11T22:32:27.767Z,11.70
2019-04-11T22:34:59.214Z,12.20
2019-04-11T22:37:30.067Z,12.03
2019-04-11T22:40:02.040Z,10.30
2019-04-11T22:42:32.940Z,11.53
2019-04-11T22:45:02.812Z,11.43
2019-04-11T22:47:32.744Z,12.00
2019-04-11T22:50:02.599Z,10.87
2019-04-11T22:52:32.491Z,11.30
2019-04-11T22:55:02.369Z,11.63
2019-04-11T22:57:32.295Z,11.97
2019-04-11T23:00:02.263Z,11.40
2019-04-11T23:02:50.933Z,12.03
2019-04-11T23:05:20.932Z,11.77
2019-04-11T23:07:50.992Z,11.37
2019-04-11T23:10:20.862Z,12.50
2019-04-11T23:12:50.728Z,12.00
2019-04-11T23:15:20.588Z,13.73
2019-04-11T23:17:50.472Z,13.00
2019-04-11T23:20:20.352Z,12.00
2019-04-11T23:22:50.208Z,12.70
2019-04-11T23:25:20.085Z,12.90
2019-04-11T23:27:50.020Z,12.70
2019-04-11T23:30:19.976Z,12.30
2019-04-11T23:32:51.704Z,13.07
2019-04-11T23:35:21.775Z,13.47
2019-04-11T23:37:52.163Z,12.37
2019-04-11T23:40:22.954Z,13.23
2019-04-11T23:42:52.928Z,13.30
2019-04-11T23:45:25.428Z,12.63
2019-04-11T23:47:55.397Z,14.27
2019-04-11T23:50:25.905Z,14.17
2019-04-11T23:52:57.871Z,15.63
2019-04-11T23:55:30.065Z,14.13
2019-04-11T23:58:01.154Z,14.00
